createdAt,value
2023-02-04T00:01:16.048Z,18.5875
2023-02-04T00:04:16.244Z,19.674999999999997
2023-02-04T00:07:18.845Z,15.3625
2023-02-04T00:11:15.866Z,11.0875
2023-02-04T00:14:16.197Z,10.7375
2023-02-04T00:17:16.294Z,10.7375
2023-02-04T00:21:16.639Z,9.8375
2023-02-04T00:24:16.976Z,8.6625
2023-02-04T00:27:16.868Z,9.024999999999999
2023-02-04T00:31:16.199Z,9.5125
2023-02-04T00:34:18.535Z,8.6625
2023-02-04T00:37:16.548Z,10.8
2023-02-04T00:41:15.913Z,11.962499999999999
2023-02-04T00:44:16.416Z,7.300000000000001
2023-02-04T00:47:16.345Z,7.637499999999999
2023-02-04T00:51:16.061Z,8.15
2023-02-04T00:54:16.290Z,13.4875
2023-02-04T00:57:16.557Z,8.325
2023-02-04T01:01:17.199Z,12.725
2023-02-04T01:04:17.685Z,12.375
2023-02-04T01:07:17.805Z,10.45
2023-02-04T01:11:15.966Z,10.7
2023-02-04T01:14:16.174Z,9.175
2023-02-04T01:17:16.132Z,9.4875
2023-02-04T01:21:16.932Z,9.625
2023-02-04T01:24:16.814Z,8.924999999999999
2023-02-04T01:27:16.853Z,7.3375
2023-02-04T01:31:16.403Z,6.875
2023-02-04T01:34:16.183Z,7.1625000000000005
2023-02-04T01:37:16.350Z,7.025
2023-02-04T01:41:17.062Z,13.837499999999999
2023-02-04T01:44:16.522Z,9.962499999999999
2023-02-04T01:47:16.742Z,10.3125
2023-02-04T01:51:23.862Z,7.1
2023-02-04T01:54:18.254Z,5.975
2023-02-04T01:57:17.319Z,7.5375
2023-02-04T02:01:34.521Z,5.025
2023-02-04T02:11:16.169Z,6.1875
2023-02-04T02:14:16.599Z,7.525
2023-02-04T02:17:16.311Z,6.025
2023-02-04T02:21:21.069Z,7.05
2023-02-04T02:24:33.343Z,9.325
2023-02-04T02:27:16.653Z,7.399999999999999
2023-02-04T02:31:18.076Z,7.4625
2023-02-04T02:34:16.684Z,6.6625
2023-02-04T02:37:16.491Z,9.3
2023-02-04T02:41:15.986Z,14
2023-02-04T02:44:17.388Z,9.4375
2023-02-04T02:47:19.316Z,6.8125
2023-02-04T02:51:16.271Z,21.2
2023-02-04T02:54:22.268Z,6.8875
2023-02-04T03:11:16.612Z,6.775
2023-02-04T03:14:17.776Z,6.625
2023-02-04T03:17:17.528Z,8.5625
2023-02-04T03:21:16.176Z,9.5
2023-02-04T03:24:17.727Z,14.9875
2023-02-04T03:27:16.594Z,5.7875
2023-02-04T03:31:16.930Z,5.1875
2023-02-04T03:34:17.545Z,6.699999999999999
2023-02-04T03:37:17.092Z,6.25
2023-02-04T03:41:16.687Z,9.5875
2023-02-04T03:44:17.102Z,6
2023-02-04T03:47:17.074Z,4.125
2023-02-04T03:51:16.450Z,6.4125
2023-02-04T03:54:16.770Z,10.912500000000001
2023-02-04T03:57:16.736Z,45.1375
2023-02-04T04:01:16.284Z,40.912499999999994
2023-02-04T04:04:16.512Z,43.875
2023-02-04T04:07:16.475Z,42.325
2023-02-04T04:11:16.659Z,51.8625
2023-02-04T04:14:17.123Z,54.9125
2023-02-04T04:17:17.019Z,63.1875
2023-02-04T04:21:15.778Z,101.6625
2023-02-04T04:24:16.187Z,71.80000000000001
2023-02-04T04:27:16.279Z,79.1875
2023-02-04T04:31:15.990Z,22.599999999999998
2023-02-04T04:34:16.093Z,63.1625
2023-02-04T04:37:16.115Z,18
2023-02-04T04:41:16.547Z,31.424999999999997
2023-02-04T04:44:16.956Z,19.0875
2023-02-04T04:47:17.014Z,12.8875
2023-02-04T04:51:15.869Z,28.0875
2023-02-04T04:54:16.242Z,15.3125
2023-02-04T04:57:16.422Z,22.15
2023-02-04T05:01:16.744Z,13.75
2023-02-04T05:04:17.161Z,8.3125
2023-02-04T05:07:17.112Z,7.625
2023-02-04T05:11:15.689Z,10.625
2023-02-04T05:14:16.170Z,5.8625
2023-02-04T05:17:16.123Z,12.5125
2023-02-04T05:21:16.150Z,12.675
2023-02-04T05:24:16.216Z,7.6375
2023-02-04T05:27:16.355Z,6.275
2023-02-04T05:31:16.395Z,6.475
2023-02-04T05:34:16.878Z,4.75
2023-02-04T05:37:18.940Z,5.35
2023-02-04T05:41:15.887Z,3.8
2023-02-04T05:44:16.333Z,4.362500000000001
2023-02-04T05:47:16.766Z,4.3
2023-02-04T05:51:16.576Z,4.375
2023-02-04T05:54:19.870Z,4.3875
2023-02-04T05:57:17.138Z,3.325
2023-02-04T06:01:16.683Z,4.9875
2023-02-04T06:04:16.792Z,4.8374999999999995
2023-02-04T06:07:16.755Z,4.25
2023-02-04T06:11:16.423Z,4.7875
2023-02-04T06:14:16.873Z,3.35
2023-02-04T06:17:17.058Z,2.675
2023-02-04T06:21:16.435Z,3.7125
2023-02-04T06:24:16.537Z,2.5375
2023-02-04T06:27:23.414Z,2.2750000000000004
2023-02-04T06:31:17.111Z,2.975
2023-02-04T06:34:16.984Z,4.35
2023-02-04T06:37:17.353Z,3.125
2023-02-04T06:41:16.248Z,4.324999999999999
2023-02-04T06:44:16.478Z,2.7625
2023-02-04T06:47:17.047Z,2.2249999999999996
2023-02-04T06:51:16.252Z,3.35
2023-02-04T06:54:16.656Z,3.325
2023-02-04T06:57:16.417Z,2.4250000000000003
2023-02-04T07:01:15.890Z,3.625
2023-02-04T07:04:16.382Z,4.324999999999999
2023-02-04T07:07:16.338Z,3.3499999999999996
2023-02-04T07:11:16.079Z,4.2
2023-02-04T07:14:16.221Z,3.2
2023-02-04T07:17:16.135Z,2.75
2023-02-04T07:21:16.680Z,2.8125
2023-02-04T07:24:16.678Z,3.7875
2023-02-04T07:27:16.706Z,3.1
2023-02-04T07:31:16.583Z,3.5125
2023-02-04T07:34:18.103Z,29.6625
2023-02-04T07:37:16.735Z,7.9125
2023-02-04T07:41:16.774Z,7.824999999999999
2023-02-04T07:44:17.115Z,3.4000000000000004
2023-02-04T07:47:17.196Z,2.6875
2023-02-04T07:51:16.217Z,2.9625
2023-02-04T07:54:16.559Z,3.1125000000000003
2023-02-04T07:57:16.670Z,2.425
2023-02-04T08:01:17.494Z,3.4000000000000004
2023-02-04T08:04:17.546Z,3.3875
2023-02-04T08:07:17.281Z,3.6875
2023-02-04T08:11:15.854Z,4.075
2023-02-04T08:14:16.670Z,3.875
2023-02-04T08:17:16.228Z,3.55
2023-02-04T08:21:18.714Z,4.5125
2023-02-04T08:24:18.200Z,3.9
2023-02-04T08:27:20.809Z,3.425
2023-02-04T08:31:17.010Z,3.7375
2023-02-04T08:34:16.537Z,3.325
2023-02-04T08:37:16.221Z,2.8875
2023-02-04T08:41:16.239Z,3.2375
2023-02-04T08:44:16.762Z,3.0999999999999996
2023-02-04T08:47:16.553Z,2.6125
2023-02-04T08:51:17.256Z,4.1625
2023-02-04T08:54:16.621Z,4.6
2023-02-04T08:57:16.507Z,5.1125
2023-02-04T09:01:16.878Z,3.6624999999999996
2023-02-04T09:04:16.406Z,3.5875
2023-02-04T09:07:16.627Z,5.9125000000000005
2023-02-04T09:11:16.739Z,8.087499999999999
2023-02-04T09:14:17.399Z,6.3999999999999995
2023-02-04T09:17:18.004Z,4.550000000000001
2023-02-04T09:21:16.412Z,4.4375
2023-02-04T09:24:16.519Z,3.3375
2023-02-04T09:27:16.630Z,3.175
2023-02-04T09:31:16.631Z,2.7249999999999996
2023-02-04T09:34:16.640Z,2.55
2023-02-04T09:37:16.560Z,3.125
2023-02-04T09:41:16.919Z,4.175
2023-02-04T09:44:21.712Z,2.5
2023-02-04T09:47:21.264Z,4
2023-02-04T09:51:20.208Z,2.875
2023-02-04T09:54:19.090Z,3.1875
2023-02-04T09:57:19.254Z,4.175
2023-02-04T10:01:19.141Z,9.975000000000001
2023-02-04T10:04:17.170Z,11.6875
2023-02-04T10:07:20.793Z,9.6625
2023-02-04T10:11:19.777Z,8.425
2023-02-04T10:14:20.596Z,9.662500000000001
2023-02-04T10:17:21.251Z,8.575
2023-02-04T10:21:19.972Z,9.7125
2023-02-04T10:24:19.381Z,10.149999999999999
2023-02-04T10:27:16.983Z,10.9875
2023-02-04T10:31:34.870Z,8.9375
2023-02-04T10:34:19.275Z,7.7125
2023-02-04T10:37:19.452Z,6.775
2023-02-04T10:41:16.829Z,6.25
2023-02-04T10:44:19.306Z,5.45
2023-02-04T10:47:19.724Z,5.35
2023-02-04T10:51:15.953Z,5.0625
2023-02-04T10:54:37.479Z,4.4625
2023-02-04T10:57:21.745Z,4.8999999999999995
2023-02-04T11:01:17.075Z,6.5
2023-02-04T11:04:16.557Z,5.25
2023-02-04T11:07:16.654Z,6.3125
2023-02-04T11:11:18.599Z,4.025
2023-02-04T11:14:23.545Z,5.05
2023-02-04T11:17:20.521Z,5.050000000000001
2023-02-04T11:21:27.106Z,4.3375
2023-02-04T11:24:24.808Z,3.9875
2023-02-04T11:27:21.994Z,4.6875
2023-02-04T11:31:59.358Z,4.9125
2023-02-04T11:34:31.697Z,4.4
2023-02-04T11:37:33.398Z,4.675000000000001
2023-02-04T11:41:23.804Z,6.5625
2023-02-04T11:44:17.714Z,6.1375
2023-02-04T11:47:17.173Z,4.9375
2023-02-04T11:51:17.666Z,5.9
2023-02-04T11:54:19.206Z,5.5375000000000005
2023-02-04T11:57:16.360Z,5.2625
2023-02-04T12:01:17.169Z,4.574999999999999
2023-02-04T12:04:23.121Z,4.3
2023-02-04T12:07:22.938Z,3.5124999999999997
2023-02-04T12:11:26.122Z,4.4
2023-02-04T12:14:18.107Z,3.1375
2023-02-04T12:17:19.152Z,2.9375
2023-02-04T12:21:16.879Z,3.6
2023-02-04T12:24:16.957Z,3.125
2023-02-04T12:27:17.044Z,2.5625
2023-02-04T12:31:16.806Z,2.975
2023-02-04T12:34:17.868Z,3.5
2023-02-04T12:37:17.124Z,3.325
2023-02-04T12:41:16.223Z,3.625
2023-02-04T12:44:17.655Z,3.05
2023-02-04T12:47:16.737Z,3.6875
2023-02-04T12:51:16.605Z,3.55
2023-02-04T12:54:17.430Z,2.7125000000000004
2023-02-04T12:57:19.912Z,3.5000000000000004
2023-02-04T13:01:16.755Z,3.0875
2023-02-04T13:04:17.117Z,3.3625
2023-02-04T13:07:17.684Z,2.7125000000000004
2023-02-04T13:11:16.249Z,2.925
2023-02-04T13:14:16.546Z,3.375
2023-02-04T13:17:16.791Z,2.8
2023-02-04T13:21:16.028Z,3.1375
2023-02-04T13:24:17.393Z,3.6125
2023-02-04T13:27:16.453Z,3.4250000000000003
2023-02-04T13:31:16.947Z,2.9875
2023-02-04T13:34:17.851Z,3.2
2023-02-04T13:37:17.314Z,3.0625
2023-02-04T13:41:15.802Z,3.4
2023-02-04T13:44:16.257Z,2.7249999999999996
2023-02-04T13:47:16.397Z,2.975
2023-02-04T13:51:17.198Z,3.2375
2023-02-04T13:54:17.216Z,2.6125
2023-02-04T13:57:17.986Z,2.3
2023-02-04T14:01:16.222Z,3.025
2023-02-04T14:04:16.504Z,2.45
2023-02-04T14:07:16.545Z,3.1125
2023-02-04T14:11:16.181Z,3.125
2023-02-04T14:14:16.612Z,2.6750000000000003
2023-02-04T14:17:16.550Z,3.45
2023-02-04T14:21:16.560Z,3.6125
2023-02-04T14:24:17.597Z,2.9625
2023-02-04T14:27:16.851Z,2.5875
2023-02-04T14:31:16.056Z,2.675
2023-02-04T14:34:16.382Z,2.8125
2023-02-04T14:37:16.349Z,4.725
2023-02-04T14:41:20.352Z,3.7124999999999995
2023-02-04T14:44:20.916Z,3.7375
2023-02-04T14:47:16.985Z,3.6125
2023-02-04T14:51:16.032Z,4.5875
2023-02-04T14:54:16.786Z,2.825
2023-02-04T14:57:16.576Z,2.9625
2023-02-04T15:01:17.315Z,4.45
2023-02-04T15:04:18.500Z,9.1
2023-02-04T15:07:17.012Z,13.3125
2023-02-04T15:11:15.885Z,8.375
2023-02-04T15:14:16.373Z,4.175000000000001
2023-02-04T15:17:16.369Z,5.7
2023-02-04T15:21:17.512Z,9
2023-02-04T15:24:17.133Z,8.912500000000001
2023-02-04T15:27:16.899Z,5.025
2023-02-04T15:31:16.830Z,4.9375
2023-02-04T15:34:16.992Z,3.4499999999999997
2023-02-04T15:37:16.976Z,3.175
2023-02-04T15:41:16.418Z,3.175
2023-02-04T15:44:16.718Z,5.5375
2023-02-04T15:47:16.771Z,13.4
2023-02-04T15:51:16.561Z,12.450000000000001
2023-02-04T15:54:18.312Z,12.825
2023-02-04T15:57:17.087Z,23.3875
2023-02-04T16:01:18.338Z,18.5125
2023-02-04T16:04:19.234Z,10.600000000000001
2023-02-04T16:07:17.867Z,16.375
2023-02-04T16:11:16.484Z,10.3875
2023-02-04T16:14:16.474Z,17.775
2023-02-04T16:17:19.000Z,34.612500000000004
2023-02-04T16:21:17.681Z,28.1375
2023-02-04T16:24:18.777Z,21.0625
2023-02-04T16:27:17.694Z,15.9375
2023-02-04T16:31:16.496Z,15.25
2023-02-04T16:34:17.596Z,11.175
2023-02-04T16:37:17.724Z,19.775000000000002
2023-02-04T16:41:16.178Z,17.35
2023-02-04T16:44:16.639Z,11.012500000000001
2023-02-04T16:47:16.582Z,13.7375
2023-02-04T16:51:18.076Z,21.6
2023-02-04T16:54:16.906Z,17.712500000000002
2023-02-04T16:57:17.118Z,13.375
2023-02-04T17:01:17.508Z,14.375
2023-02-04T17:04:17.264Z,11.787500000000001
2023-02-04T17:07:17.095Z,18.1125
2023-02-04T17:11:32.430Z,15.7125
2023-02-04T17:14:16.360Z,7.7
2023-02-04T17:17:16.347Z,8.5
2023-02-04T17:21:16.237Z,7.6125
2023-02-04T17:24:16.343Z,6.7875
2023-02-04T17:27:16.142Z,7.2625
2023-02-04T17:31:16.595Z,10.1875
2023-02-04T17:34:17.188Z,10.4875
2023-02-04T17:37:16.886Z,15.05
2023-02-04T17:41:18.280Z,17.387500000000003
2023-02-04T17:44:20.237Z,10.925
2023-02-04T17:47:17.817Z,8
2023-02-04T17:51:17.500Z,7.0125
2023-02-04T17:54:16.330Z,6.5125
2023-02-04T17:57:19.017Z,14.625
2023-02-04T18:01:18.525Z,22.7125
2023-02-04T18:04:16.821Z,19.2375
2023-02-04T18:07:16.842Z,19.1375
2023-02-04T18:11:20.059Z,19.362500000000004
2023-02-04T18:14:23.770Z,13.024999999999999
2023-02-04T18:17:17.212Z,9.8
2023-02-04T18:21:19.725Z,8.4125
2023-02-04T18:24:21.779Z,4.9125
2023-02-04T18:27:23.207Z,4.3625
2023-02-04T18:31:29.695Z,5.075
2023-02-04T18:34:35.439Z,4.225
2023-02-04T18:37:28.760Z,4.6875
2023-02-04T18:41:31.348Z,3.6375
2023-02-04T18:44:27.717Z,3.6125
2023-02-04T18:47:27.177Z,4.7375
2023-02-04T18:51:24.947Z,4.512499999999999
2023-02-04T18:54:26.297Z,10.2125
2023-02-04T18:57:23.904Z,3.8625000000000003
2023-02-04T19:01:21.839Z,6.9125
2023-02-04T19:04:21.165Z,5.5125
2023-02-04T19:07:16.250Z,6.7
2023-02-04T19:11:32.405Z,5.112500000000001
2023-02-04T19:14:23.536Z,5.6375
2023-02-04T19:17:23.686Z,4.9125
2023-02-04T19:21:30.687Z,7.8375
2023-02-04T19:24:21.586Z,4.4
2023-02-04T19:27:29.163Z,5.3125
2023-02-04T19:31:16.566Z,48.1
2023-02-04T19:34:24.017Z,29.4125
2023-02-04T19:37:22.621Z,11.0125
2023-02-04T19:41:25.850Z,7.237500000000001
2023-02-04T19:44:42.856Z,5.5625
2023-02-04T19:47:25.899Z,5.1375
2023-02-04T19:51:24.628Z,21.375
2023-02-04T19:54:18.367Z,25.337500000000002
2023-02-04T19:57:23.277Z,16.8625
2023-02-04T20:01:18.454Z,11.5
2023-02-04T20:04:19.709Z,6.0625
2023-02-04T20:07:20.789Z,5.075
2023-02-04T20:11:54.115Z,5.0125
2023-02-04T20:14:24.929Z,3.3
2023-02-04T20:17:22.560Z,3.25
2023-02-04T20:21:16.671Z,5.975
2023-02-04T20:24:17.375Z,5.425000000000001
2023-02-04T20:27:21.444Z,2.45
2023-02-04T20:31:25.155Z,3.4375
2023-02-04T20:34:21.003Z,2.675
2023-02-04T20:37:22.826Z,3.475
2023-02-04T20:41:19.927Z,2.0999999999999996
2023-02-04T20:44:25.287Z,2.7124999999999995
2023-02-04T20:47:18.704Z,2.3125
2023-02-04T20:51:23.130Z,4.125
2023-02-04T20:54:20.712Z,2.825
2023-02-04T20:57:21.934Z,9.925
2023-02-04T21:01:25.043Z,2.5500000000000003
2023-02-04T21:04:22.218Z,1.775
2023-02-04T21:07:20.732Z,1.525
2023-02-04T21:11:17.363Z,2.4
2023-02-04T21:14:20.280Z,3.35
2023-02-04T21:17:18.491Z,1.9375
2023-02-04T21:21:18.029Z,1.325
2023-02-04T21:24:19.218Z,2
2023-02-04T21:27:25.118Z,2.0875
2023-02-04T21:31:17.873Z,2.6500000000000004
2023-02-04T21:34:17.645Z,1.7
2023-02-04T21:37:19.985Z,3.1500000000000004
2023-02-04T21:41:17.654Z,2.7625
2023-02-04T21:44:18.775Z,1.4
2023-02-04T21:47:19.197Z,1.25
2023-02-04T21:51:17.078Z,1.75
2023-02-04T21:54:19.516Z,0.9625000000000001
2023-02-04T21:57:18.975Z,1.4500000000000002
2023-02-04T22:01:18.340Z,1.3625
2023-02-04T22:04:18.208Z,0.8374999999999999
2023-02-04T22:07:17.808Z,0.875
2023-02-04T22:11:17.879Z,2.325
2023-02-04T22:14:16.798Z,1.3125
2023-02-04T22:17:16.730Z,2.1875
2023-02-04T22:21:16.285Z,1.4625
2023-02-04T22:24:16.716Z,1.2625000000000002
2023-02-04T22:27:17.063Z,1.2374999999999998
2023-02-04T22:31:17.151Z,1.5499999999999998
2023-02-04T22:34:17.451Z,1.1749999999999998
2023-02-04T22:37:17.268Z,1.8250000000000002
2023-02-04T22:41:16.876Z,2.2375
2023-02-04T22:44:17.338Z,1.5125000000000002
2023-02-04T22:47:17.175Z,1.6
2023-02-04T22:51:16.715Z,1.65
2023-02-04T22:54:17.193Z,1.375
2023-02-04T22:57:17.119Z,1.4625
2023-02-04T23:01:16.855Z,1.475
2023-02-04T23:04:17.220Z,0.9
2023-02-04T23:07:17.787Z,3.7375
2023-02-04T23:11:17.847Z,4.625
2023-02-04T23:14:16.684Z,1.3625000000000003
2023-02-04T23:17:17.293Z,2.1125
2023-02-04T23:21:16.887Z,1.4625
2023-02-04T23:24:16.878Z,1.725
2023-02-04T23:27:17.217Z,1.2375
2023-02-04T23:31:17.009Z,1.1
2023-02-04T23:34:17.452Z,1.225
2023-02-04T23:37:17.385Z,0.925
2023-02-04T23:41:16.519Z,1.4
2023-02-04T23:44:17.199Z,0.9125
2023-02-04T23:47:17.994Z,0.9999999999999999
2023-02-04T23:51:16.206Z,0.6125
2023-02-04T23:54:16.598Z,2.25
2023-02-04T23:57:16.748Z,2.025
